Time;durP1;ratioP1;P1;durP2;ratioP2;P2;SDS_P1;SDS_P2;PMS_P1;PMS_P2;Temp;Humidity;BMP_temperature;BMP_pressure;BME280_temperature;BME280_humidity;BME280_pressure;Samples;Min_cycle;Max_cycle;Signal;HPM_P1;HPM_P2
2022/11/21 00:03:18;;;;;;;3.97;3.15;;;;;;;2.92;66.03;99977.00;18435957;32;20097;-58
2022/11/21 00:13:21;;;;;;;0.90;0.90;;;;;;;2.70;65.89;99974.78;18435388;32;20500;-58
2022/11/21 00:23:27;;;;;;;2.50;2.35;;;;;;;2.72;66.87;99962.78;18435559;32;20158;-58
2022/11/21 00:33:31;;;;;;;3.65;3.30;;;;;;;2.94;67.43;99950.38;18435040;32;20093;-59
2022/11/21 00:43:35;;;;;;;0.77;0.77;;;;;;;2.92;67.82;99934.88;18435568;32;20093;-58
2022/11/21 00:53:38;;;;;;;1.02;1.02;;;;;;;3.07;67.99;99933.44;18429490;32;20502;-58
2022/11/21 01:03:45;;;;;;;0.80;0.80;;;;;;;3.18;68.10;99912.22;18370282;32;20097;-58
2022/11/21 01:13:48;;;;;;;0.90;0.88;;;;;;;3.08;69.11;99899.97;18370091;32;20113;-58
2022/11/21 01:23:53;;;;;;;0.70;0.70;;;;;;;3.41;68.37;99888.56;18370714;32;20459;-58
2022/11/21 01:33:58;;;;;;;2.05;1.95;;;;;;;3.54;68.12;99897.41;18369663;32;20093;-59
2022/11/21 01:44:04;;;;;;;1.52;1.52;;;;;;;3.63;67.78;99901.87;18369289;32;20108;-59
2022/11/21 01:54:10;;;;;;;2.53;2.42;;;;;;;3.52;67.68;99898.22;18369860;32;20201;-59
2022/11/21 02:04:15;;;;;;;1.37;1.35;;;;;;;3.47;67.25;99909.31;18368166;32;20381;-59
2022/11/21 02:14:18;;;;;;;0.70;0.70;;;;;;;3.30;67.25;99887.47;18369042;32;20109;-58
2022/11/21 02:24:27;;;;;;;0.80;0.80;;;;;;;3.15;67.50;99873.47;18368339;32;20422;-58
2022/11/21 02:34:32;;;;;;;1.05;1.00;;;;;;;2.83;67.73;99889.13;18367455;32;20112;-58
2022/11/21 02:44:40;;;;;;;1.08;1.08;;;;;;;2.82;67.39;99874.50;18366872;32;20109;-58
2022/11/21 02:54:45;;;;;;;0.95;0.95;;;;;;;2.92;66.94;99876.44;18366219;32;20170;-60
2022/11/21 03:04:48;;;;;;;0.45;0.45;;;;;;;2.79;67.47;99874.44;18365911;32;20097;-58
2022/11/21 03:14:53;;;;;;;0.60;0.60;;;;;;;2.76;67.71;99877.84;18366394;32;20093;-58
2022/11/21 03:24:56;;;;;;;2.55;1.23;;;;;;;2.52;67.57;99879.91;18396276;32;20116;-58
2022/11/21 03:35:00;;;;;;;1.70;1.70;;;;;;;2.63;68.10;99881.84;18433661;32;20150;-59
2022/11/21 03:45:06;;;;;;;0.80;0.80;;;;;;;2.73;68.12;99871.72;18437541;32;20101;-59
2022/11/21 03:55:11;;;;;;;1.27;1.17;;;;;;;2.78;68.15;99858.09;18436893;32;20076;-58
2022/11/21 04:05:14;;;;;;;0.60;0.60;;;;;;;2.94;68.04;99852.38;18435587;32;20431;-58
2022/11/21 04:15:19;;;;;;;0.60;0.60;;;;;;;2.73;68.25;99833.06;18435300;32;20141;-58
2022/11/21 04:25:22;;;;;;;0.90;0.90;;;;;;;2.61;68.79;99816.53;18434818;32;20104;-58
2022/11/21 04:35:27;;;;;;;1.20;1.17;;;;;;;2.75;68.05;99797.88;18434788;32;20101;-58
2022/11/21 04:45:30;;;;;;;2.67;2.47;;;;;;;1.61;71.26;99799.66;18435667;32;20093;-58
2022/11/21 04:55:34;;;;;;;0.60;0.60;;;;;;;2.69;68.76;99787.47;18433930;32;20084;-58
2022/11/21 05:05:38;;;;;;;0.70;0.70;;;;;;;2.78;69.27;99772.19;18434325;32;20166;-58
2022/11/21 05:15:42;;;;;;;0.68;0.68;;;;;;;3.08;68.77;99763.28;18434006;32;20429;-58
2022/11/21 05:25:46;;;;;;;0.52;0.52;;;;;;;3.04;68.85;99764.09;18433922;32;20101;-58
2022/11/21 05:35:50;;;;;;;0.65;0.65;;;;;;;3.11;68.26;99768.47;18433622;32;20377;-58
2022/11/21 05:45:54;;;;;;;0.65;0.65;;;;;;;3.22;67.84;99752.31;18433106;32;20175;-59
2022/11/21 05:56:02;;;;;;;0.60;0.60;;;;;;;3.23;67.68;99769.56;18432875;32;20072;-58
2022/11/21 06:06:06;;;;;;;0.60;0.60;;;;;;;2.47;68.37;99784.47;18433331;32;20519;-58
2022/11/21 06:16:12;;;;;;;1.52;1.45;;;;;;;2.89;67.16;99781.00;18432287;32;20112;-58
2022/11/21 06:26:17;;;;;;;0.82;0.82;;;;;;;2.88;67.13;99784.41;18431562;32;20154;-58
2022/11/21 06:36:22;;;;;;;0.73;0.73;;;;;;;2.98;67.44;99780.28;18429488;32;20192;-58
2022/11/21 06:46:30;;;;;;;0.50;0.50;;;;;;;3.05;67.33;99801.91;18429707;32;20094;-58
2022/11/21 06:56:35;;;;;;;1.62;1.60;;;;;;;3.09;67.46;99808.84;18428906;32;20093;-58
2022/11/21 07:06:38;;;;;;;0.70;0.70;;;;;;;2.87;68.06;99823.94;18430453;32;20112;-58
2022/11/21 07:16:42;;;;;;;0.68;0.68;;;;;;;2.35;69.74;99829.72;18420876;32;20089;-58
2022/11/21 07:26:46;;;;;;;0.75;0.75;;;;;;;1.86;73.30;99838.88;18426173;32;20140;-58
2022/11/21 07:36:50;;;;;;;0.70;0.70;;;;;;;2.01;72.36;99846.09;18410774;32;20105;-58
2022/11/21 07:46:54;;;;;;;0.85;0.82;;;;;;;2.46;71.04;99845.41;18424086;32;20098;-59
2022/11/21 07:56:59;;;;;;;0.70;0.70;;;;;;;3.05;69.62;99827.72;18424295;32;20388;-58
2022/11/21 08:07:02;;;;;;;1.52;1.45;;;;;;;3.28;69.49;99845.31;18415675;32;20111;-59
2022/11/21 08:17:12;;;;;;;0.77;0.77;;;;;;;3.56;70.02;99846.69;18434719;32;20093;-59
2022/11/21 08:27:19;;;;;;;0.50;0.50;;;;;;;3.08;71.73;99856.13;18432379;32;20093;-58
2022/11/21 08:37:24;;;;;;;1.00;1.00;;;;;;;4.00;69.85;99852.56;18432400;32;20103;-58
2022/11/21 08:47:27;;;;;;;4.75;1.80;;;;;;;4.22;69.99;99848.59;18431581;32;73027;-59
2022/11/21 08:57:31;;;;;;;0.62;0.62;;;;;;;4.25;69.22;99869.28;18434308;32;20154;-59
2022/11/21 09:07:35;;;;;;;0.52;0.52;;;;;;;4.48;68.76;99881.72;18433495;32;20111;-58
2022/11/21 09:28:00;;;;;;;0.60;0.60;;;;;;;3.08;74.48;99865.56;18408151;32;20369;-59
2022/11/21 09:38:05;;;;;;;0.60;0.60;;;;;;;3.93;72.99;99861.94;18400831;32;20116;-58
2022/11/21 09:48:11;;;;;;;0.60;0.60;;;;;;;4.62;70.81;99870.69;18432649;32;20441;-58
2022/11/21 09:58:20;;;;;;;8.00;6.65;;;;;;;4.98;69.87;99872.00;18432293;32;20141;-59
2022/11/21 10:08:30;;;;;;;0.88;0.88;;;;;;;5.11;69.97;99867.84;18304004;32;20117;-59
2022/11/21 10:19:02;;;;;;;0.70;0.70;;;;;;;5.91;68.70;99846.16;18325042;32;20090;-59
2022/11/21 10:29:11;;;;;;;0.60;0.60;;;;;;;6.11;67.93;99843.78;18424831;32;20130;-59
2022/11/21 10:39:20;;;;;;;1.02;1.02;;;;;;;6.35;67.53;99816.25;18416960;32;20108;-59
2022/11/21 10:49:24;;;;;;;0.62;0.62;;;;;;;6.41;66.92;99810.25;18415974;32;20081;-59
2022/11/21 10:59:30;;;;;;;8.48;3.05;;;;;;;6.03;67.40;99796.19;18430572;32;20096;-59
2022/11/21 11:09:34;;;;;;;0.60;0.60;;;;;;;6.05;69.03;99790.19;18416403;32;20142;-59
2022/11/21 11:19:39;;;;;;;1.23;1.12;;;;;;;7.00;65.97;99787.16;18410315;32;20109;-59
2022/11/21 11:29:51;;;;;;;0.60;0.60;;;;;;;6.78;66.60;99776.69;18414824;32;20097;-59
2022/11/21 11:40:06;;;;;;;1.20;1.20;;;;;;;6.05;69.53;99781.53;18418046;32;20105;-59
2022/11/21 11:50:11;;;;;;;0.93;0.88;;;;;;;6.83;67.54;99741.25;18421767;32;20085;-59
2022/11/21 12:00:25;;;;;;;1.37;1.35;;;;;;;6.96;67.46;99730.88;18421869;32;20097;-59
2022/11/21 12:10:34;;;;;;;1.75;1.33;;;;;;;7.21;66.73;99724.88;18390797;32;20094;-60
2022/11/21 12:20:45;;;;;;;1.02;1.02;;;;;;;7.70;65.43;99711.87;18417704;32;20456;-59
2022/11/21 12:31:00;;;;;;;1.55;1.40;;;;;;;8.00;64.82;99699.69;18418637;32;20362;-59
2022/11/21 12:42:48;;;;;;;0.60;0.60;;;;;;;7.89;64.39;99702.31;18434687;32;20119;-59
2022/11/21 13:02:13;;;;;;;1.23;1.23;;;;;;;7.95;64.83;99673.72;18408305;32;20162;-59
2022/11/21 13:12:23;;;;;;;0.98;0.98;;;;;;;8.25;65.17;99670.97;18419074;32;20472;-59
2022/11/21 13:22:49;;;;;;;1.55;1.00;;;;;;;8.39;64.55;99669.19;18431348;32;20105;-59
2022/11/21 13:32:53;;;;;;;2.10;1.92;;;;;;;8.47;64.86;99685.62;18432363;32;20769;-59
2022/11/21 13:43:23;;;;;;;0.77;0.77;;;;;;;8.73;64.44;99674.25;18416926;32;20214;-60
2022/11/21 13:54:04;;;;;;;3.80;3.40;;;;;;;8.80;63.90;99676.78;18412544;32;20135;-60
2022/11/21 14:04:33;;;;;;;1.20;1.10;;;;;;;8.91;63.10;99677.56;18428875;32;20111;-59
2022/11/21 14:14:39;;;;;;;1.42;1.33;;;;;;;8.69;63.10;99674.28;18431311;32;20132;-60
2022/11/21 14:24:43;;;;;;;1.25;1.23;;;;;;;8.62;62.80;99686.44;18430985;32;20386;-59
2022/11/21 14:34:47;;;;;;;2.65;2.45;;;;;;;8.43;63.08;99685.66;18429679;32;20119;-60
2022/11/21 14:45:09;;;;;;;1.95;1.33;;;;;;;8.30;63.30;99684.84;18413882;32;20103;-59
2022/11/21 14:55:22;;;;;;;1.02;1.00;;;;;;;8.05;63.28;99690.13;18425735;32;20089;-59
2022/11/21 15:05:35;;;;;;;0.50;0.50;;;;;;;7.83;63.87;99708.38;18431134;32;20100;-59
2022/11/21 15:15:59;;;;;;;1.37;1.27;;;;;;;7.78;64.58;99703.19;18435261;32;20077;-59
2022/11/21 15:26:04;;;;;;;1.02;0.98;;;;;;;7.73;64.03;99710.16;18436546;32;20386;-59
2022/11/21 15:36:12;;;;;;;1.52;1.42;;;;;;;7.45;64.24;99717.97;18431888;32;20105;-59
2022/11/21 15:46:18;;;;;;;2.00;1.85;;;;;;;7.34;64.22;99723.16;18421013;32;20370;-59
2022/11/21 15:56:22;;;;;;;1.98;1.87;;;;;;;7.17;64.51;99733.53;18434810;32;20133;-59
2022/11/21 16:06:27;;;;;;;3.92;2.87;;;;;;;7.01;65.00;99737.81;18433522;32;20097;-59
2022/11/21 16:16:32;;;;;;;1.55;1.45;;;;;;;6.82;65.42;99746.44;18435507;32;20093;-59
2022/11/21 16:26:37;;;;;;;0.98;0.98;;;;;;;6.89;65.47;99719.63;18421995;32;20108;-59
2022/11/21 16:36:40;;;;;;;0.60;0.60;;;;;;;6.74;66.58;99725.66;18436197;32;20117;-59
2022/11/21 16:46:47;;;;;;;1.30;1.20;;;;;;;6.66;66.25;99723.91;18434743;32;20409;-59
2022/11/21 16:56:51;;;;;;;2.37;2.17;;;;;;;6.85;65.53;99712.72;18434697;32;20440;-59
2022/11/21 17:06:56;;;;;;;1.15;1.12;;;;;;;6.67;64.82;99729.97;18434224;32;20092;-59
2022/11/21 17:16:59;;;;;;;0.98;0.98;;;;;;;6.51;64.28;99742.03;18432885;32;20140;-59
2022/11/21 17:27:05;;;;;;;2.17;2.03;;;;;;;6.25;64.14;99742.78;18433736;32;20136;-59
2022/11/21 17:37:08;;;;;;;0.98;0.95;;;;;;;5.73;64.94;99749.31;18418793;32;20338;-59
2022/11/21 17:47:13;;;;;;;2.83;2.42;;;;;;;5.54;64.71;99750.94;18432937;32;20114;-59
2022/11/21 17:57:17;;;;;;;5.43;1.58;;;;;;;5.28;64.47;99756.75;18431954;32;20089;-59
2022/11/21 18:07:22;;;;;;;1.83;1.73;;;;;;;5.08;64.08;99747.06;18418641;32;20086;-59
2022/11/21 18:17:25;;;;;;;0.70;0.70;;;;;;;4.65;64.48;99754.41;18418194;32;20121;-59
2022/11/21 18:27:30;;;;;;;3.83;2.55;;;;;;;4.41;64.69;99759.28;18417848;32;20116;-59
2022/11/21 18:37:34;;;;;;;0.45;0.45;;;;;;;4.13;65.03;99758.03;18431722;32;20108;-58
2022/11/21 18:47:40;;;;;;;1.62;1.58;;;;;;;4.11;65.00;99749.41;18408180;32;20113;-59
2022/11/21 18:57:43;;;;;;;0.90;0.90;;;;;;;4.05;66.00;99757.06;18419891;32;20421;-59
2022/11/21 19:07:47;;;;;;;1.45;1.37;;;;;;;4.11;67.57;99754.56;18390985;32;20105;-59
2022/11/21 19:17:52;;;;;;;2.87;2.25;;;;;;;4.42;67.79;99757.56;18424175;32;20117;-60
2022/11/21 19:27:58;;;;;;;2.55;2.42;;;;;;;4.74;67.07;99757.06;18391245;32;20357;-59
2022/11/21 19:38:01;;;;;;;4.82;4.53;;;;;;;4.74;67.75;99758.78;18423893;32;20101;-59
2022/11/21 19:48:06;;;;;;;8.60;3.60;;;;;;;4.93;67.86;99760.72;18410689;32;20392;-59
2022/11/21 19:58:09;;;;;;;1.50;1.25;;;;;;;5.16;68.07;99774.75;18426562;32;20518;-59
2022/11/21 20:08:14;;;;;;;2.10;2.00;;;;;;;5.36;68.00;99770.63;18432356;32;20119;-59
2022/11/21 20:18:20;;;;;;;6.45;5.97;;;;;;;5.45;68.13;99768.97;18433423;32;20089;-59
2022/11/21 20:28:25;;;;;;;1.15;1.15;;;;;;;5.52;68.05;99781.97;18419298;32;20107;-59
2022/11/21 20:38:29;;;;;;;1.00;1.00;;;;;;;5.68;67.98;99772.59;18431200;32;20458;-59
2022/11/21 20:48:35;;;;;;;1.37;1.27;;;;;;;5.84;68.46;99762.38;18430661;32;20093;-59
2022/11/21 20:58:40;;;;;;;4.25;3.25;;;;;;;6.01;67.80;99764.22;18430930;32;20089;-59
2022/11/21 21:08:46;;;;;;;2.42;2.22;;;;;;;6.00;68.55;99752.09;18430992;32;20114;-59
2022/11/21 21:18:52;;;;;;;2.65;2.15;;;;;;;6.21;68.31;99741.00;18429114;32;20097;-60
2022/11/21 21:28:58;;;;;;;1.75;1.37;;;;;;;6.12;68.91;99736.66;18385530;32;20366;-59
2022/11/21 21:39:01;;;;;;;1.33;1.25;;;;;;;6.21;69.72;99741.00;18388168;32;20355;-59
2022/11/21 21:49:06;;;;;;;1.17;1.12;;;;;;;6.42;69.33;99714.31;18393362;32;20151;-59
2022/11/21 21:59:09;;;;;;;1.70;1.35;;;;;;;6.47;69.22;99712.63;18387769;32;20125;-59
2022/11/21 22:09:13;;;;;;;2.85;2.60;;;;;;;6.63;69.00;99707.47;18389321;32;20096;-59
2022/11/21 22:19:17;;;;;;;0.85;0.85;;;;;;;6.80;68.43;99726.53;18394372;32;20105;-59
2022/11/21 22:29:21;;;;;;;1.27;1.17;;;;;;;6.75;68.55;99712.72;18428842;32;20104;-59
2022/11/21 22:39:25;;;;;;;0.50;0.50;;;;;;;6.64;68.62;99723.03;18428052;32;20093;-59
2022/11/21 22:49:30;;;;;;;0.50;0.50;;;;;;;6.74;67.96;99718.75;18427866;32;20358;-59
2022/11/21 22:59:33;;;;;;;0.75;0.75;;;;;;;6.59;68.29;99723.91;18427400;32;20136;-59
2022/11/21 23:09:38;;;;;;;0.90;0.90;;;;;;;6.59;68.55;99714.41;18426785;32;20389;-60
2022/11/21 23:19:41;;;;;;;1.02;1.02;;;;;;;6.56;68.40;99716.12;18426227;32;20137;-59
2022/11/21 23:29:45;;;;;;;1.02;1.02;;;;;;;6.38;68.64;99715.19;18425805;32;20104;-59
2022/11/21 23:39:49;;;;;;;0.55;0.55;;;;;;;6.61;68.20;99710.06;18433199;32;20097;-59
2022/11/21 23:49:53;;;;;;;2.15;1.95;;;;;;;6.48;68.65;99703.97;18433528;32;20093;-59
2022/11/21 23:59:56;;;;;;;1.50;1.35;;;;;;;6.47;68.85;99688.41;18433270;32;20116;-59
